createdAt,value
2023-11-01T00:00:48.096Z,4.95
2023-11-01T00:03:33.016Z,5.03
2023-11-01T00:06:04.124Z,4.20
2023-11-01T00:08:32.604Z,4.85
2023-11-01T00:11:01.223Z,4.90
2023-11-01T00:13:29.513Z,5.15
2023-11-01T00:15:58.283Z,5.95
2023-11-01T00:18:26.575Z,5.38
2023-11-01T00:20:55.655Z,6.20
2023-11-01T00:23:25.324Z,5.82
2023-11-01T00:25:54.048Z,6.18
2023-11-01T00:28:22.604Z,6.88
2023-11-01T00:30:51.316Z,6.18
2023-11-01T00:33:20.068Z,7.35
2023-11-01T00:35:49.352Z,6.38
2023-11-01T00:38:21.285Z,6.50
2023-11-01T00:40:51.226Z,6.28
2023-11-01T00:43:19.791Z,6.00
2023-11-01T00:45:48.648Z,4.75
2023-11-01T00:48:17.179Z,5.57
2023-11-01T00:50:46.602Z,5.75
2023-11-01T00:53:15.167Z,5.40
2023-11-01T00:55:43.905Z,5.93
2023-11-01T00:58:13.943Z,6.70
2023-11-01T01:00:42.624Z,6.40
2023-11-01T01:03:12.204Z,6.60
2023-11-01T01:05:43.120Z,7.55
2023-11-01T01:08:11.908Z,7.38
2023-11-01T01:10:40.493Z,7.50
2023-11-01T01:13:09.462Z,8.60
2023-11-01T01:15:39.686Z,7.60
2023-11-01T01:18:07.999Z,7.40
2023-11-01T01:20:36.835Z,6.97
2023-11-01T01:23:05.288Z,6.60
2023-11-01T01:25:34.152Z,6.68
2023-11-01T01:28:02.534Z,6.90
2023-11-01T01:30:31.270Z,7.50
2023-11-01T01:33:01.039Z,6.18
2023-11-01T01:35:29.971Z,6.30
2023-11-01T01:37:58.117Z,5.72
2023-11-01T01:40:26.847Z,6.28
2023-11-01T01:42:55.227Z,6.38
2023-11-01T01:45:24.257Z,5.72
2023-11-01T01:47:52.962Z,5.97
2023-11-01T01:50:23.552Z,5.65
2023-11-01T01:52:51.891Z,5.78
2023-11-01T01:55:20.947Z,6.13
2023-11-01T01:57:49.634Z,5.07
2023-11-01T02:00:19.434Z,6.13
2023-11-01T02:02:48.030Z,6.60
2023-11-01T02:05:16.796Z,6.65
2023-11-01T02:07:46.745Z,5.82
2023-11-01T02:10:15.811Z,5.90
2023-11-01T02:12:44.084Z,5.25
2023-11-01T02:15:12.809Z,5.30
2023-11-01T02:17:41.107Z,6.18
2023-11-01T02:20:10.989Z,5.53
2023-11-01T02:22:39.222Z,6.65
2023-11-01T02:25:09.650Z,6.10
2023-11-01T02:27:37.996Z,5.78
2023-11-01T02:30:07.918Z,6.07
2023-11-01T02:32:36.961Z,6.40
2023-11-01T02:35:07.428Z,5.28
2023-11-01T02:37:35.790Z,5.50
2023-11-01T02:40:04.655Z,6.05
2023-11-01T02:42:34.483Z,6.38
2023-11-01T02:45:03.181Z,6.45
2023-11-01T02:47:31.520Z,6.10
2023-11-01T02:50:00.081Z,5.35
2023-11-01T02:52:28.736Z,6.53
2023-11-01T02:54:57.303Z,5.97
2023-11-01T02:57:26.093Z,6.10
2023-11-01T02:59:56.409Z,6.28
2023-11-01T03:02:24.818Z,6.25
2023-11-01T03:04:54.013Z,6.22
2023-11-01T03:07:22.636Z,6.15
2023-11-01T03:09:51.052Z,5.68
2023-11-01T03:12:21.284Z,5.82
2023-11-01T03:14:50.969Z,6.15
2023-11-01T03:17:22.157Z,5.80
2023-11-01T03:19:50.999Z,5.53
2023-11-01T03:22:20.926Z,5.90
2023-11-01T03:24:50.868Z,6.47
2023-11-01T03:27:19.122Z,5.70
2023-11-01T03:29:47.824Z,6.53
2023-11-01T03:32:16.135Z,6.25
2023-11-01T03:34:47.163Z,6.10
2023-11-01T03:37:15.647Z,5.18
2023-11-01T03:39:44.193Z,5.30
2023-11-01T03:42:12.367Z,5.40
2023-11-01T03:44:41.071Z,6.10
2023-11-01T03:47:10.744Z,5.75
2023-11-01T03:49:39.320Z,4.75
2023-11-01T03:52:09.299Z,4.70
2023-11-01T03:54:37.883Z,5.55
2023-11-01T03:57:06.452Z,4.95
2023-11-01T03:59:35.296Z,5.25
2023-11-01T04:02:04.377Z,5.43
2023-11-01T04:04:33.457Z,5.63
2023-11-01T04:07:01.820Z,5.20
2023-11-01T04:09:31.862Z,4.75
2023-11-01T04:11:59.982Z,5.40
2023-11-01T04:14:29.217Z,5.60
2023-11-01T04:16:57.523Z,4.22
2023-11-01T04:19:26.312Z,4.93
2023-11-01T04:21:54.937Z,4.97
2023-11-01T04:24:25.252Z,5.00
2023-11-01T04:26:54.941Z,4.70
2023-11-01T04:29:26.776Z,5.00
2023-11-01T04:31:55.075Z,4.65
2023-11-01T04:34:23.814Z,5.03
2023-11-01T04:36:51.991Z,4.35
2023-11-01T04:39:20.563Z,4.30
2023-11-01T04:41:48.825Z,4.32
2023-11-01T04:44:18.667Z,3.72
2023-11-01T04:46:46.913Z,3.97
2023-11-01T04:49:15.343Z,4.20
2023-11-01T04:51:45.071Z,4.25
2023-11-01T04:54:13.576Z,4.38
2023-11-01T04:56:41.833Z,3.95
2023-11-01T04:59:10.355Z,4.72
2023-11-01T05:01:39.982Z,4.20
2023-11-01T05:04:09.326Z,4.18
2023-11-01T05:06:37.582Z,4.60
2023-11-01T05:09:06.263Z,4.40
2023-11-01T05:11:35.309Z,4.22
2023-11-01T05:14:04.580Z,4.57
2023-11-01T05:16:33.448Z,4.40
2023-11-01T05:19:03.280Z,4.57
2023-11-01T05:21:31.642Z,5.13
2023-11-01T05:24:00.184Z,4.13
2023-11-01T05:26:30.885Z,4.22
2023-11-01T05:28:59.485Z,4.40
2023-11-01T05:31:27.661Z,4.93
2023-11-01T05:33:56.436Z,4.53
2023-11-01T05:36:26.025Z,4.63
2023-11-01T05:38:54.613Z,5.50
2023-11-01T05:41:23.244Z,5.20
2023-11-01T05:43:51.858Z,5.28
2023-11-01T05:46:23.301Z,5.53
2023-11-01T05:48:51.960Z,5.03
2023-11-01T05:51:20.633Z,5.10
2023-11-01T05:53:51.105Z,4.55
2023-11-01T05:58:51.038Z,4.20
2023-11-01T06:01:21.365Z,4.75
2023-11-01T06:03:52.087Z,5.25
2023-11-01T06:06:20.655Z,4.50
2023-11-01T06:08:50.648Z,5.13
2023-11-01T06:11:19.142Z,5.38
2023-11-01T06:13:47.689Z,4.93
2023-11-01T06:16:16.039Z,4.13
2023-11-01T06:18:47.381Z,5.43
2023-11-01T06:21:16.603Z,6.30
2023-11-01T06:23:46.135Z,4.32
2023-11-01T06:26:17.728Z,5.65
2023-11-01T06:28:46.911Z,5.65
2023-11-01T06:31:15.557Z,4.68
2023-11-01T06:33:44.236Z,3.60
2023-11-01T06:36:13.483Z,3.97
2023-11-01T06:38:42.320Z,3.70
2023-11-01T06:41:10.644Z,4.25
2023-11-01T06:43:40.556Z,3.90
2023-11-01T06:46:08.767Z,3.92
2023-11-01T06:48:37.604Z,3.22
2023-11-01T06:51:06.910Z,4.13
2023-11-01T06:53:35.589Z,3.92
2023-11-01T06:56:04.154Z,4.10
2023-11-01T06:58:32.954Z,3.92
2023-11-01T07:01:02.861Z,4.15
2023-11-01T07:03:32.101Z,3.60
2023-11-01T07:06:00.527Z,4.38
2023-11-01T07:08:29.163Z,3.70
2023-11-01T07:10:57.366Z,3.72
2023-11-01T07:13:28.491Z,3.95
2023-11-01T07:15:57.216Z,3.75
2023-11-01T07:18:27.444Z,3.83
2023-11-01T07:20:55.786Z,3.17
2023-11-01T07:23:24.508Z,3.75
2023-11-01T07:25:52.740Z,11.68
2023-11-01T07:28:21.267Z,4.65
2023-11-01T07:30:49.640Z,15.65
2023-11-01T07:33:18.331Z,8.25
2023-11-01T07:35:48.149Z,8.10
2023-11-01T07:38:16.771Z,10.32
2023-11-01T07:40:44.948Z,8.35
2023-11-01T07:43:13.552Z,8.18
2023-11-01T07:45:41.985Z,4.35
2023-11-01T07:48:10.769Z,6.53
2023-11-01T07:50:41.802Z,6.20
2023-11-01T07:55:40.142Z,3.67
2023-11-01T07:58:09.000Z,3.50
2023-11-01T08:00:37.349Z,5.53
2023-11-01T08:03:06.163Z,3.55
2023-11-01T08:05:34.780Z,2.88
2023-11-01T08:08:03.586Z,2.90
2023-11-01T08:10:33.235Z,2.40
2023-11-01T08:13:01.941Z,2.63
2023-11-01T08:15:33.731Z,1.85
2023-11-01T08:18:03.693Z,2.22
2023-11-01T08:20:32.718Z,2.38
2023-11-01T08:23:01.333Z,7.05
2023-11-01T08:25:29.898Z,3.88
2023-11-01T08:27:59.882Z,3.00
2023-11-01T08:30:28.400Z,2.85
2023-11-01T08:32:57.153Z,2.70
2023-11-01T08:35:25.587Z,4.90
2023-11-01T08:37:54.170Z,3.67
2023-11-01T08:40:22.463Z,2.75
2023-11-01T08:42:51.099Z,2.20
2023-11-01T08:45:20.817Z,2.28
2023-11-01T08:47:51.713Z,2.47
2023-11-01T08:50:20.055Z,1.88
2023-11-01T08:52:48.666Z,2.13
2023-11-01T08:55:17.696Z,2.20
2023-11-01T08:57:47.376Z,2.35
2023-11-01T09:00:17.950Z,2.30
2023-11-01T09:02:49.740Z,2.42
2023-11-01T09:05:20.051Z,2.03
2023-11-01T09:07:50.895Z,2.75
2023-11-01T09:10:20.867Z,2.50
2023-11-01T09:12:49.625Z,1.83
2023-11-01T09:15:17.991Z,2.03
2023-11-01T09:17:46.649Z,2.30
2023-11-01T09:20:16.549Z,2.13
2023-11-01T09:22:46.037Z,2.33
2023-11-01T09:25:14.982Z,1.85
2023-11-01T09:27:44.198Z,1.83
2023-11-01T09:30:13.485Z,1.80
2023-11-01T09:32:42.492Z,1.80
2023-11-01T09:35:13.122Z,1.73
2023-11-01T09:37:43.285Z,1.35
2023-11-01T09:40:13.009Z,2.35
2023-11-01T09:42:42.542Z,1.80
2023-11-01T09:45:14.411Z,2.58
2023-11-01T09:47:43.288Z,3.85
2023-11-01T09:50:13.702Z,1.50
2023-11-01T09:52:44.230Z,1.65
2023-11-01T09:55:15.200Z,1.63
2023-11-01T10:00:15.428Z,6.10
2023-11-01T10:02:50.147Z,3.30
2023-11-01T10:05:18.512Z,2.38
2023-11-01T10:07:48.505Z,1.50
2023-11-01T10:10:18.164Z,1.50
2023-11-01T10:12:47.114Z,6.18
2023-11-01T10:15:23.287Z,10.15
2023-11-01T10:17:53.814Z,4.07
2023-11-01T10:20:26.526Z,2.35
2023-11-01T10:22:58.905Z,1.55
2023-11-01T10:25:28.610Z,2.60
2023-11-01T10:27:57.204Z,1.70
2023-11-01T10:30:26.530Z,1.90
2023-11-01T10:32:56.101Z,1.92
2023-11-01T10:35:24.697Z,2.05
2023-11-01T10:37:59.499Z,1.80
2023-11-01T10:40:29.104Z,2.05
2023-11-01T10:43:00.419Z,2.28
2023-11-01T10:45:29.076Z,1.90
2023-11-01T10:47:58.145Z,1.90
2023-11-01T10:50:28.692Z,2.15
2023-11-01T10:52:59.172Z,2.17
2023-11-01T10:55:30.013Z,1.90
2023-11-01T10:57:58.893Z,1.83
2023-11-01T11:00:34.162Z,1.80
2023-11-01T11:03:09.165Z,2.70
2023-11-01T11:05:42.656Z,2.45
2023-11-01T11:08:13.040Z,1.67
2023-11-01T11:10:43.513Z,1.83
2023-11-01T11:13:39.188Z,2.17
2023-11-01T11:16:10.009Z,1.70
2023-11-01T11:19:00.577Z,2.17
2023-11-01T11:21:55.312Z,1.90
2023-11-01T11:24:59.227Z,2.28
2023-11-01T11:27:53.628Z,1.60
2023-11-01T11:31:07.246Z,2.05
2023-11-01T11:33:36.321Z,2.15
2023-11-01T11:36:12.333Z,1.92
2023-11-01T11:38:46.349Z,1.95
2023-11-01T11:41:18.806Z,2.10
2023-11-01T11:44:07.563Z,1.67
2023-11-01T11:46:39.612Z,1.98
2023-11-01T11:49:09.613Z,1.55
2023-11-01T11:51:39.090Z,2.50
2023-11-01T11:54:14.370Z,1.63
2023-11-01T11:56:45.117Z,1.30
2023-11-01T11:59:20.281Z,1.83
2023-11-01T12:01:49.425Z,1.73
2023-11-01T12:04:18.321Z,2.40
2023-11-01T12:06:48.070Z,1.65
2023-11-01T12:09:20.588Z,1.90
2023-11-01T12:11:52.289Z,2.20
2023-11-01T12:14:21.578Z,1.92
2023-11-01T12:16:51.383Z,1.67
2023-11-01T12:19:20.601Z,2.45
2023-11-01T12:21:50.915Z,2.17
2023-11-01T12:24:20.904Z,2.30
2023-11-01T12:27:19.121Z,1.50
2023-11-01T12:29:49.072Z,1.85
2023-11-01T12:32:19.800Z,1.52
2023-11-01T12:35:06.396Z,1.50
2023-11-01T12:37:36.157Z,1.33
2023-11-01T12:40:09.012Z,1.33
2023-11-01T12:42:39.950Z,1.70
2023-11-01T12:45:09.849Z,1.80
2023-11-01T12:47:43.302Z,2.43
2023-11-01T12:50:12.153Z,2.00
2023-11-01T12:52:41.834Z,2.40
2023-11-01T12:55:10.880Z,1.75
2023-11-01T12:57:44.617Z,2.00
2023-11-01T13:00:16.936Z,1.80
2023-11-01T13:02:45.846Z,1.63
2023-11-01T13:05:16.622Z,1.95
2023-11-01T13:07:46.513Z,1.55
2023-11-01T13:10:16.262Z,1.60
2023-11-01T13:12:48.100Z,1.30
2023-11-01T13:15:17.862Z,1.50
2023-11-01T13:17:46.743Z,1.77
2023-11-01T13:20:15.074Z,1.40
2023-11-01T13:22:43.727Z,1.50
2023-11-01T13:25:12.366Z,1.67
2023-11-01T13:27:41.183Z,1.55
2023-11-01T13:30:12.096Z,1.70
2023-11-01T13:35:09.672Z,1.55
2023-11-01T13:37:38.317Z,1.60
2023-11-01T13:40:07.595Z,1.58
2023-11-01T13:42:36.356Z,1.67
2023-11-01T13:45:05.116Z,1.65
2023-11-01T13:47:35.349Z,1.50
2023-11-01T13:50:03.819Z,1.35
2023-11-01T13:52:32.397Z,1.30
2023-11-01T13:55:00.698Z,1.50
2023-11-01T13:57:29.596Z,1.75
2023-11-01T13:59:58.329Z,1.55
2023-11-01T14:02:27.380Z,1.77
2023-11-01T14:04:57.309Z,1.40
2023-11-01T14:07:27.087Z,1.80
2023-11-01T14:09:55.699Z,1.50
2023-11-01T14:12:35.094Z,1.40
2023-11-01T14:15:03.576Z,1.67
2023-11-01T14:17:35.410Z,1.83
2023-11-01T14:20:06.025Z,2.20
2023-11-01T14:22:34.673Z,2.03
2023-11-01T14:25:03.056Z,2.13
2023-11-01T14:27:31.828Z,1.90
2023-11-01T14:30:01.769Z,1.40
2023-11-01T14:32:31.132Z,1.50
2023-11-01T14:35:00.940Z,1.55
2023-11-01T14:37:31.038Z,2.03
2023-11-01T14:42:29.338Z,1.50
2023-11-01T14:44:57.699Z,1.55
2023-11-01T14:47:26.408Z,1.38
2023-11-01T14:49:54.811Z,1.58
2023-11-01T14:52:23.888Z,1.70
2023-11-01T14:54:53.735Z,1.90
2023-11-01T14:57:22.732Z,1.60
2023-11-01T14:59:51.163Z,1.50
2023-11-01T15:02:21.137Z,2.42
2023-11-01T15:04:51.700Z,2.47
2023-11-01T15:07:21.103Z,1.50
2023-11-01T15:09:49.473Z,1.13
2023-11-01T15:12:23.833Z,1.38
2023-11-01T15:14:53.530Z,1.58
2023-11-01T15:17:22.335Z,1.58
2023-11-01T15:19:50.910Z,1.75
2023-11-01T15:22:19.562Z,1.40
2023-11-01T15:24:49.089Z,5.60
2023-11-01T15:27:19.712Z,3.60
2023-11-01T15:29:49.540Z,3.67
2023-11-01T15:32:18.327Z,4.22
2023-11-01T15:34:47.541Z,3.20
2023-11-01T15:37:16.552Z,2.80
2023-11-01T15:39:45.712Z,2.10
2023-11-01T15:42:14.734Z,2.08
2023-11-01T15:44:44.506Z,1.80
2023-11-01T15:47:13.407Z,2.40
2023-11-01T15:49:41.747Z,2.90
2023-11-01T15:52:10.457Z,1.70
2023-11-01T15:54:38.728Z,2.72
2023-11-01T15:57:12.027Z,3.63
2023-11-01T15:59:40.427Z,5.60
2023-11-01T16:02:11.985Z,3.28
2023-11-01T16:04:40.679Z,3.50
2023-11-01T16:07:09.665Z,3.30
2023-11-01T16:09:39.564Z,5.50
2023-11-01T16:12:09.875Z,3.50
2023-11-01T16:14:38.315Z,6.95
2023-11-01T16:17:08.783Z,4.70
2023-11-01T16:19:38.731Z,5.40
2023-11-01T16:22:07.609Z,4.78
2023-11-01T16:24:35.982Z,3.80
2023-11-01T16:27:05.198Z,5.05
2023-11-01T16:29:33.550Z,5.80
2023-11-01T16:32:02.513Z,3.70
2023-11-01T16:34:30.922Z,4.60
2023-11-01T16:37:00.990Z,6.18
2023-11-01T16:39:29.441Z,4.00
2023-11-01T16:41:58.086Z,5.32
2023-11-01T16:44:26.320Z,3.80
2023-11-01T16:46:55.978Z,3.67
2023-11-01T16:49:24.413Z,4.22
2023-11-01T16:51:53.084Z,5.57
2023-11-01T16:54:22.860Z,5.18
2023-11-01T16:56:51.514Z,6.82
2023-11-01T16:59:20.048Z,6.20
2023-11-01T17:01:48.924Z,3.88
2023-11-01T17:04:17.477Z,7.35
2023-11-01T17:06:46.317Z,4.18
2023-11-01T17:09:14.636Z,6.72
2023-11-01T17:11:45.164Z,3.28
2023-11-01T17:14:13.554Z,3.63
2023-11-01T17:16:42.829Z,4.15
2023-11-01T17:19:11.241Z,3.33
2023-11-01T17:21:39.783Z,4.47
2023-11-01T17:24:09.317Z,3.30
2023-11-01T17:26:38.033Z,9.48
2023-11-01T17:29:08.756Z,7.28
2023-11-01T17:31:40.644Z,11.30
2023-11-01T17:34:10.388Z,10.23
2023-11-01T17:36:39.254Z,5.53
2023-11-01T17:39:09.534Z,6.60
2023-11-01T17:41:59.244Z,6.70
2023-11-01T17:44:32.411Z,6.45
2023-11-01T17:47:03.423Z,4.32
2023-11-01T17:49:58.689Z,4.70
2023-11-01T17:52:32.721Z,4.57
2023-11-01T17:55:01.952Z,3.22
2023-11-01T17:57:33.186Z,4.18
2023-11-01T18:00:05.105Z,4.75
2023-11-01T18:03:17.032Z,5.00
2023-11-01T18:05:56.100Z,5.57
2023-11-01T18:08:32.504Z,5.90
2023-11-01T18:11:04.708Z,4.65
2023-11-01T18:13:34.745Z,4.32
2023-11-01T18:16:06.834Z,3.38
2023-11-01T18:18:45.891Z,3.65
2023-11-01T18:21:20.395Z,3.35
2023-11-01T18:23:55.526Z,3.60
2023-11-01T18:26:24.094Z,4.18
2023-11-01T18:28:57.830Z,4.38
2023-11-01T18:31:30.804Z,3.55
2023-11-01T18:34:01.663Z,3.80
2023-11-01T18:36:32.212Z,4.33
2023-11-01T18:39:01.488Z,3.75
2023-11-01T18:41:34.830Z,3.42
2023-11-01T18:44:04.905Z,6.90
2023-11-01T18:46:36.973Z,6.40
2023-11-01T18:49:06.934Z,6.32
2023-11-01T18:51:56.925Z,5.40
2023-11-01T18:54:40.154Z,4.60
2023-11-01T18:57:15.575Z,3.55
2023-11-01T18:59:45.326Z,4.70
2023-11-01T19:02:53.732Z,3.00
2023-11-01T19:05:24.491Z,15.85
2023-11-01T19:07:53.650Z,4.07
2023-11-01T19:10:24.709Z,4.00
2023-11-01T19:12:54.085Z,4.22
2023-11-01T19:16:18.351Z,5.38
2023-11-01T19:18:49.944Z,5.47
2023-11-01T19:21:19.460Z,6.93
2023-11-01T19:23:50.085Z,6.85
2023-11-01T19:26:21.888Z,5.25
2023-11-01T19:28:51.823Z,4.50
2023-11-01T19:31:22.273Z,4.68
2023-11-01T19:33:54.531Z,5.32
2023-11-01T19:36:24.445Z,3.97
2023-11-01T19:38:53.300Z,4.70
2023-11-01T19:41:22.613Z,4.78
2023-11-01T19:43:57.555Z,4.90
2023-11-01T19:46:26.967Z,4.32
2023-11-01T19:48:57.184Z,4.60
2023-11-01T19:51:25.815Z,5.07
2023-11-01T19:53:56.741Z,5.60
2023-11-01T19:56:27.214Z,5.15
2023-11-01T19:58:55.557Z,5.63
2023-11-01T20:01:24.326Z,6.10
2023-11-01T20:03:57.985Z,6.07
2023-11-01T20:06:26.967Z,5.33
2023-11-01T20:08:55.367Z,5.53
2023-11-01T20:11:24.474Z,6.10
2023-11-01T20:13:53.298Z,5.10
2023-11-01T20:16:30.134Z,5.25
2023-11-01T20:19:02.912Z,5.45
2023-11-01T20:21:33.741Z,5.32
2023-11-01T20:24:02.318Z,7.93
2023-11-01T20:26:31.726Z,5.22
2023-11-01T20:29:01.140Z,5.72
2023-11-01T20:31:31.332Z,7.53
2023-11-01T20:34:02.347Z,6.78
2023-11-01T20:36:31.204Z,6.97
2023-11-01T20:39:00.843Z,8.07
2023-11-01T20:41:29.667Z,6.68
2023-11-01T20:43:58.166Z,6.75
2023-11-01T20:46:26.733Z,6.63
2023-11-01T20:48:55.237Z,7.07
2023-11-01T20:51:25.340Z,9.32
2023-11-01T20:53:54.916Z,7.55
2023-11-01T20:56:23.722Z,7.35
2023-11-01T20:58:53.127Z,8.50
2023-11-01T21:01:21.943Z,7.57
2023-11-01T21:03:51.080Z,8.18
2023-11-01T21:06:21.606Z,7.80
2023-11-01T21:08:54.116Z,7.80
2023-11-01T21:11:22.902Z,7.65
2023-11-01T21:13:52.128Z,7.65
2023-11-01T21:16:21.172Z,7.65
2023-11-01T21:18:50.924Z,7.93
2023-11-01T21:21:19.945Z,8.05
2023-11-01T21:23:48.518Z,8.40
2023-11-01T21:26:18.533Z,7.47
2023-11-01T21:28:46.852Z,7.55
2023-11-01T21:31:15.543Z,7.75
2023-11-01T21:33:46.600Z,7.45
2023-11-01T21:36:15.545Z,8.77
2023-11-01T21:38:44.870Z,8.23
2023-11-01T21:41:13.909Z,8.02
2023-11-01T21:43:53.988Z,8.18
2023-11-01T21:46:29.343Z,8.63
2023-11-01T21:48:58.157Z,8.88
2023-11-01T21:51:30.485Z,8.73
2023-11-01T21:53:59.735Z,9.25
2023-11-01T21:56:36.294Z,10.10
2023-11-01T21:59:18.133Z,8.52
2023-11-01T22:01:46.764Z,9.13
2023-11-01T22:04:21.632Z,9.15
2023-11-01T22:06:52.551Z,9.65
2023-11-01T22:09:22.491Z,9.20
2023-11-01T22:11:52.485Z,8.07
2023-11-01T22:14:37.161Z,8.82
2023-11-01T22:17:08.227Z,8.93
2023-11-01T22:19:38.611Z,8.90
2023-11-01T22:22:11.925Z,8.32
2023-11-01T22:24:43.079Z,9.05
2023-11-01T22:27:12.800Z,8.55
2023-11-01T22:29:48.090Z,8.68
2023-11-01T22:32:27.193Z,9.30
2023-11-01T22:34:56.645Z,9.00
2023-11-01T22:37:28.420Z,8.73
2023-11-01T22:39:57.921Z,9.25
2023-11-01T22:42:29.939Z,9.70
2023-11-01T22:45:03.098Z,10.13
2023-11-01T22:47:32.878Z,8.93
2023-11-01T22:50:01.963Z,9.57
2023-11-01T22:52:31.377Z,9.38
2023-11-01T22:55:01.065Z,8.93
2023-11-01T22:57:31.735Z,9.75
2023-11-01T23:00:02.516Z,9.23
2023-11-01T23:02:32.473Z,9.98
2023-11-01T23:05:00.864Z,9.48
2023-11-01T23:07:29.699Z,10.55
2023-11-01T23:09:58.549Z,10.10
2023-11-01T23:12:27.756Z,9.90
2023-11-01T23:14:56.125Z,8.70
2023-11-01T23:17:26.124Z,10.10
2023-11-01T23:19:54.604Z,9.48
2023-11-01T23:22:23.226Z,8.48
2023-11-01T23:24:51.668Z,9.30
2023-11-01T23:27:20.390Z,8.98
2023-11-01T23:29:48.825Z,9.82
2023-11-01T23:32:17.709Z,8.32
2023-11-01T23:34:49.816Z,8.73
2023-11-01T23:37:34.911Z,9.07
2023-11-01T23:40:05.792Z,8.95
2023-11-01T23:42:35.454Z,8.98
2023-11-01T23:45:27.815Z,8.77
2023-11-01T23:47:58.383Z,9.00
2023-11-01T23:50:34.083Z,9.18
2023-11-01T23:53:04.220Z,8.70
2023-11-01T23:55:32.780Z,9.00
2023-11-01T23:58:01.985Z,8.43
